createdAt,value
2023-04-20T00:01:48.044Z,18.63
2023-04-20T00:04:15.339Z,16.92
2023-04-20T00:06:43.995Z,15.68
2023-04-20T00:09:11.134Z,16.33
2023-04-20T00:11:37.589Z,16.27
2023-04-20T00:14:04.495Z,15.88
2023-04-20T00:16:31.187Z,13.63
2023-04-20T00:18:59.222Z,14.32
2023-04-20T00:21:26.241Z,17.48
2023-04-20T00:23:52.842Z,16.33
2023-04-20T00:26:19.993Z,21.48
2023-04-20T00:28:46.543Z,21.80
2023-04-20T00:31:13.042Z,17.70
2023-04-20T00:33:39.573Z,16.33
2023-04-20T00:36:06.395Z,16.55
2023-04-20T00:38:33.149Z,14.45
2023-04-20T00:40:59.614Z,13.73
2023-04-20T00:43:26.289Z,15.85
2023-04-20T00:45:52.925Z,16.85
2023-04-20T00:48:19.720Z,16.50
2023-04-20T00:50:46.223Z,16.55
2023-04-20T00:53:13.027Z,12.85
2023-04-20T00:55:39.892Z,13.70
2023-04-20T00:58:06.770Z,15.82
2023-04-20T01:00:33.656Z,15.48
2023-04-20T01:03:00.344Z,21.77
2023-04-20T01:05:27.247Z,17.23
2023-04-20T01:07:53.788Z,14.05
2023-04-20T01:10:20.348Z,16.20
2023-04-20T01:12:46.838Z,18.70
2023-04-20T01:15:13.343Z,16.15
2023-04-20T01:17:40.238Z,20.63
2023-04-20T01:20:12.667Z,14.77
2023-04-20T01:22:45.899Z,19.27
2023-04-20T01:25:12.474Z,16.02
2023-04-20T01:27:39.062Z,19.63
2023-04-20T01:30:06.028Z,15.38
2023-04-20T01:32:32.669Z,15.13
2023-04-20T01:34:59.178Z,17.33
2023-04-20T01:37:25.822Z,16.35
2023-04-20T01:39:52.467Z,17.58
2023-04-20T01:42:19.059Z,21.23
2023-04-20T01:44:45.802Z,18.17
2023-04-20T01:47:12.242Z,15.50
2023-04-20T01:49:38.693Z,14.32
2023-04-20T01:52:05.234Z,16.30
2023-04-20T01:54:31.762Z,17.00
2023-04-20T01:56:58.533Z,14.95
2023-04-20T01:59:25.152Z,17.05
2023-04-20T02:01:51.844Z,17.65
2023-04-20T02:04:18.429Z,18.33
2023-04-20T02:06:45.749Z,17.50
2023-04-20T02:09:13.671Z,18.92
2023-04-20T02:11:41.247Z,15.82
2023-04-20T02:14:08.885Z,21.60
2023-04-20T02:16:37.790Z,17.02
2023-04-20T02:19:05.476Z,15.85
2023-04-20T02:21:33.349Z,15.25
2023-04-20T02:24:01.391Z,17.08
2023-04-20T02:26:29.423Z,21.98
2023-04-20T02:28:55.981Z,20.92
2023-04-20T02:31:24.022Z,19.65
2023-04-20T02:33:52.285Z,17.48
2023-04-20T02:36:18.720Z,14.65
2023-04-20T02:38:46.520Z,18.55
2023-04-20T02:41:14.245Z,22.60
2023-04-20T02:43:40.788Z,15.80
2023-04-20T02:46:07.840Z,20.27
2023-04-20T02:48:34.440Z,21.10
2023-04-20T02:51:01.312Z,21.88
2023-04-20T02:53:29.071Z,18.50
2023-04-20T02:55:55.641Z,22.35
2023-04-20T02:58:23.508Z,20.60
2023-04-20T03:00:52.056Z,20.25
2023-04-20T03:03:21.442Z,23.38
2023-04-20T03:05:49.405Z,21.15
2023-04-20T03:08:17.233Z,19.50
2023-04-20T03:10:47.247Z,21.13
2023-04-20T03:13:15.666Z,21.63
2023-04-20T03:15:43.340Z,18.90
2023-04-20T03:18:10.023Z,19.27
2023-04-20T03:20:36.576Z,27.58
2023-04-20T03:23:06.294Z,25.05
2023-04-20T03:25:36.775Z,21.38
2023-04-20T03:28:03.599Z,27.52
2023-04-20T03:30:31.713Z,22.13
2023-04-20T03:32:59.350Z,23.75
2023-04-20T03:35:29.694Z,24.55
2023-04-20T03:37:56.166Z,22.70
2023-04-20T03:40:24.001Z,25.00
2023-04-20T03:42:52.022Z,23.27
2023-04-20T03:45:18.547Z,24.17
2023-04-20T03:47:46.176Z,23.20
2023-04-20T03:50:13.997Z,27.35
2023-04-20T03:52:41.837Z,22.25
2023-04-20T03:55:09.473Z,22.65
2023-04-20T03:57:37.808Z,19.80
2023-04-20T04:00:05.762Z,22.58
2023-04-20T04:02:36.781Z,26.60
2023-04-20T04:05:06.102Z,20.83
2023-04-20T04:07:36.769Z,23.02
2023-04-20T04:10:06.093Z,24.10
2023-04-20T04:12:33.845Z,29.52
2023-04-20T04:15:02.116Z,26.52
2023-04-20T04:17:30.218Z,24.92
2023-04-20T04:19:57.885Z,22.65
2023-04-20T04:22:25.451Z,24.83
2023-04-20T04:24:54.558Z,25.20
2023-04-20T04:27:23.193Z,26.95
2023-04-20T04:29:51.105Z,26.75
2023-04-20T04:32:19.141Z,32.20
2023-04-20T04:34:48.282Z,25.25
2023-04-20T04:37:16.042Z,23.10
2023-04-20T04:39:43.557Z,27.73
2023-04-20T04:42:11.729Z,25.35
2023-04-20T04:44:40.145Z,28.35
2023-04-20T04:47:06.727Z,25.98
2023-04-20T04:49:36.245Z,22.58
2023-04-20T04:52:03.913Z,30.33
2023-04-20T04:54:31.644Z,25.77
2023-04-20T04:56:59.518Z,23.95
2023-04-20T04:59:26.081Z,30.58
2023-04-20T05:01:52.674Z,27.27
2023-04-20T05:04:19.415Z,26.10
2023-04-20T05:06:46.455Z,28.58
2023-04-20T05:09:14.528Z,23.88
2023-04-20T05:11:42.321Z,28.77
2023-04-20T05:14:10.035Z,32.13
2023-04-20T05:16:36.646Z,22.65
2023-04-20T05:19:04.957Z,25.05
2023-04-20T05:21:32.940Z,23.33
2023-04-20T05:24:00.894Z,25.30
2023-04-20T05:26:28.659Z,30.08
2023-04-20T05:28:56.262Z,28.08
2023-04-20T05:31:23.932Z,31.95
2023-04-20T05:33:51.568Z,26.63
2023-04-20T05:36:19.944Z,26.33
2023-04-20T05:38:46.668Z,28.38
2023-04-20T05:41:14.426Z,33.45
2023-04-20T05:43:42.424Z,27.15
2023-04-20T05:46:10.074Z,33.25
2023-04-20T05:48:37.977Z,24.35
2023-04-20T05:51:04.659Z,29.00
2023-04-20T05:53:35.188Z,29.13
2023-04-20T05:56:01.710Z,24.48
2023-04-20T05:58:30.210Z,32.03
2023-04-20T06:00:58.234Z,26.58
2023-04-20T06:03:24.984Z,29.92
2023-04-20T06:05:53.362Z,23.77
2023-04-20T17:18:46.586Z,6.68
2023-04-20T17:21:13.088Z,8.18
2023-04-20T17:23:41.118Z,9.48
2023-04-20T17:26:07.757Z,6.07
2023-04-20T17:28:34.279Z,8.57
2023-04-20T17:31:00.810Z,8.40
2023-04-20T17:33:27.320Z,7.10
2023-04-20T17:35:55.221Z,8.30
2023-04-20T17:38:21.805Z,12.02
2023-04-20T17:40:48.301Z,13.95
2023-04-20T17:43:15.050Z,10.23
2023-04-20T17:45:41.620Z,10.50
2023-04-20T17:48:09.019Z,10.68
2023-04-20T17:50:35.915Z,13.23
2023-04-20T17:53:07.017Z,10.57
2023-04-20T17:55:34.162Z,10.45
2023-04-20T17:58:01.131Z,13.00
2023-04-20T18:00:27.692Z,11.13
2023-04-20T18:02:54.417Z,10.63
2023-04-20T18:05:21.174Z,16.15
2023-04-20T18:07:47.913Z,17.15
2023-04-20T18:10:15.766Z,17.10
2023-04-20T18:12:42.621Z,12.65
2023-04-20T18:15:09.423Z,13.48
2023-04-20T18:17:35.991Z,14.10
2023-04-20T18:20:02.836Z,13.38
2023-04-20T18:22:29.263Z,15.07
2023-04-20T18:24:55.885Z,10.85
2023-04-20T18:27:22.462Z,10.10
2023-04-20T18:29:49.686Z,13.27
2023-04-20T18:32:17.975Z,9.82
2023-04-20T18:34:44.544Z,13.52
2023-04-20T18:37:12.522Z,14.98
2023-04-20T18:39:39.296Z,14.95
2023-04-20T18:42:05.940Z,12.65
2023-04-20T18:44:32.551Z,14.10
2023-04-20T18:46:59.335Z,17.10
2023-04-20T18:49:26.101Z,11.75
2023-04-20T18:51:52.587Z,17.27
2023-04-20T18:54:19.527Z,18.58
2023-04-20T18:56:46.500Z,11.73
2023-04-20T18:59:13.033Z,12.48
2023-04-20T19:01:40.675Z,18.15
2023-04-20T19:04:11.275Z,15.25
2023-04-20T19:06:37.962Z,10.43
2023-04-20T19:09:07.799Z,11.95
2023-04-20T19:11:34.793Z,12.55
2023-04-20T19:14:01.481Z,15.40
2023-04-20T19:16:31.551Z,14.73
2023-04-20T19:18:58.581Z,19.48
2023-04-20T19:21:25.030Z,15.50
2023-04-20T19:23:51.604Z,19.02
2023-04-20T19:26:18.539Z,19.02
2023-04-20T19:28:45.912Z,19.80
2023-04-20T19:31:12.836Z,17.85
2023-04-20T19:33:40.180Z,15.20
2023-04-20T19:36:06.784Z,18.75
2023-04-20T19:38:34.627Z,17.73
2023-04-20T19:41:01.507Z,19.95
2023-04-20T19:43:28.150Z,15.43
2023-04-20T19:45:58.385Z,18.40
2023-04-20T19:48:25.229Z,19.08
2023-04-20T19:50:51.856Z,24.13
2023-04-20T19:53:19.248Z,22.80
2023-04-20T19:55:46.328Z,31.88
2023-04-20T19:58:13.518Z,34.55
2023-04-20T20:00:40.355Z,39.30
2023-04-20T20:03:11.760Z,36.60
2023-04-20T20:05:38.356Z,29.63
2023-04-20T20:08:04.993Z,29.15
2023-04-20T20:10:31.506Z,33.85
2023-04-20T20:12:58.124Z,29.20
2023-04-20T20:15:24.816Z,39.25
2023-04-20T20:17:58.772Z,43.75
2023-04-20T20:20:30.613Z,42.53
2023-04-20T20:25:24.384Z,34.25
2023-04-20T20:27:51.264Z,36.55
2023-04-20T20:30:18.543Z,35.22
2023-04-20T20:32:45.147Z,32.08
2023-04-20T20:35:13.006Z,28.90
2023-04-20T20:37:40.311Z,29.98
2023-04-20T20:40:12.316Z,43.72
2023-04-20T20:42:40.194Z,34.83
2023-04-20T20:45:07.488Z,35.83
2023-04-20T20:47:34.287Z,43.28
2023-04-20T20:50:00.770Z,42.75
2023-04-20T20:52:29.914Z,40.78
2023-04-20T20:54:56.424Z,40.28
2023-04-20T20:57:23.070Z,37.15
2023-04-20T20:59:50.429Z,40.80
2023-04-20T21:02:18.400Z,39.72
2023-04-20T21:04:44.983Z,34.50
2023-04-20T21:07:11.441Z,42.60
2023-04-20T21:09:37.861Z,38.47
2023-04-20T21:12:04.562Z,42.75
2023-04-20T21:14:31.229Z,30.48
2023-04-20T21:16:57.793Z,33.47
2023-04-20T21:19:24.391Z,32.83
2023-04-20T21:21:51.024Z,39.28
2023-04-20T21:24:17.454Z,36.42
2023-04-20T21:26:43.960Z,34.10
2023-04-20T21:29:10.461Z,38.30
2023-04-20T21:31:36.999Z,40.95
2023-04-20T21:34:03.556Z,39.88
2023-04-20T21:36:30.028Z,39.05
2023-04-20T21:38:56.461Z,38.08
2023-04-20T21:41:22.950Z,40.83
2023-04-20T21:43:51.646Z,39.45
2023-04-20T21:46:18.222Z,41.05
2023-04-20T21:48:44.706Z,39.95
2023-04-20T21:51:14.891Z,45.40
2023-04-20T21:53:41.505Z,39.50
2023-04-20T21:56:07.940Z,44.28
2023-04-20T21:58:34.433Z,50.72
2023-04-20T22:01:00.983Z,42.38
2023-04-20T22:03:29.329Z,36.85
2023-04-20T22:05:56.267Z,32.70
2023-04-20T22:08:23.001Z,39.80
2023-04-20T22:10:49.906Z,32.38
2023-04-20T22:13:16.886Z,34.40
2023-04-20T22:15:44.082Z,33.90
2023-04-20T22:18:11.333Z,36.28
2023-04-20T22:20:38.067Z,43.97
2023-04-20T22:23:04.868Z,37.53
2023-04-20T22:25:31.453Z,33.83
2023-04-20T22:27:58.077Z,29.27
2023-04-20T22:30:24.550Z,32.05
2023-04-20T22:32:51.068Z,31.85
2023-04-20T22:35:17.548Z,33.17
2023-04-20T22:37:44.086Z,34.67
2023-04-20T22:40:10.615Z,31.42
2023-04-20T22:42:37.191Z,30.17
2023-04-20T22:45:03.954Z,34.30
2023-04-20T22:47:30.487Z,31.20
2023-04-20T22:49:56.926Z,46.60
2023-04-20T22:52:23.436Z,42.88
2023-04-20T22:54:50.043Z,42.45
2023-04-20T22:57:18.224Z,37.97
2023-04-20T22:59:44.720Z,41.20
2023-04-20T23:02:11.252Z,40.78
2023-04-20T23:04:37.879Z,35.13
2023-04-20T23:07:05.146Z,31.90
2023-04-20T23:09:39.846Z,46.80
2023-04-20T23:12:10.489Z,34.95
2023-04-20T23:14:37.586Z,36.72
2023-04-20T23:17:04.586Z,34.60
2023-04-20T23:19:32.915Z,37.42
2023-04-20T23:21:59.796Z,31.80
2023-04-20T23:24:26.417Z,31.48
2023-04-20T23:26:52.938Z,29.08
2023-04-20T23:29:19.648Z,30.85
2023-04-20T23:31:46.502Z,33.78
2023-04-20T23:34:12.979Z,36.03
2023-04-20T23:36:39.534Z,43.83
2023-04-20T23:39:06.283Z,38.72
2023-04-20T23:41:32.736Z,34.15
2023-04-20T23:43:59.289Z,31.42
2023-04-20T23:46:25.975Z,29.70
2023-04-20T23:48:52.734Z,33.78
2023-04-20T23:51:19.300Z,43.03
2023-04-20T23:53:45.854Z,36.85
2023-04-20T23:56:12.325Z,35.63
2023-04-20T23:58:38.901Z,37.20
